Time;durP1;ratioP1;P1;durP2;ratioP2;P2;SDS_P1;SDS_P2;PMS_P1;PMS_P2;Temp;Humidity;BMP_temperature;BMP_pressure;BME280_temperature;BME280_humidity;BME280_pressure;Samples;Min_cycle;Max_cycle;Signal;HPM_P1;HPM_P2
2023/07/26 00:02:04;;;;;;;4.43;2.05;;;;;;;13.39;84.57;101269.53;6060872;19;20114;-76
2023/07/26 00:04:10;;;;;;;5.10;2.42;;;;;;;13.31;85.94;101267.22;6057990;19;20280;-75
2023/07/26 00:06:15;;;;;;;6.95;2.85;;;;;;;13.17;84.09;101269.63;6070837;19;20030;-75
2023/07/26 00:08:23;;;;;;;5.35;2.42;;;;;;;13.20;86.10;101265.97;6063597;19;20330;-74
2023/07/26 00:10:28;;;;;;;4.88;2.53;;;;;;;13.23;85.09;101264.06;6063047;19;20494;-74
2023/07/26 00:12:35;;;;;;;5.47;2.50;;;;;;;13.15;85.34;101266.19;6063282;19;20017;-75
2023/07/26 00:14:40;;;;;;;5.20;2.00;;;;;;;13.10;85.21;101261.09;6060939;19;20011;-75
2023/07/26 00:16:43;;;;;;;4.07;2.20;;;;;;;13.05;87.56;101267.50;6064139;19;20022;-75
2023/07/26 00:18:49;;;;;;;3.90;2.25;;;;;;;13.01;89.57;101258.88;6061038;19;20644;-76
2023/07/26 00:20:54;;;;;;;2.30;2.00;;;;;;;12.98;86.18;101264.31;6056250;19;20881;-76
2023/07/26 00:22:59;;;;;;;4.13;2.30;;;;;;;12.95;85.61;101259.13;6067595;19;20385;-76
2023/07/26 00:25:08;;;;;;;3.95;2.40;;;;;;;12.92;86.41;101260.13;6062461;19;20519;-74
2023/07/26 00:27:17;;;;;;;5.47;2.53;;;;;;;12.87;87.35;101266.53;6059318;19;20175;-75
2023/07/26 00:29:22;;;;;;;4.60;2.50;;;;;;;12.85;87.88;101263.09;6050191;19;20234;-74
2023/07/26 00:31:28;;;;;;;3.75;2.10;;;;;;;12.79;88.14;101263.38;6060762;19;20014;-75
2023/07/26 00:33:31;;;;;;;5.25;2.63;;;;;;;12.78;88.08;101265.16;6062542;19;20838;-75
2023/07/26 00:35:43;;;;;;;4.70;2.30;;;;;;;12.70;86.71;101261.97;6057470;19;20883;-76
2023/07/26 00:37:49;;;;;;;5.38;2.50;;;;;;;12.65;87.64;101262.16;6056835;19;20011;-77
2023/07/26 00:39:54;;;;;;;3.65;2.35;;;;;;;12.61;87.28;101260.59;6049263;19;20430;-74
2023/07/26 00:42:02;;;;;;;7.63;2.65;;;;;;;12.58;87.33;101257.22;6067247;19;20272;-76
2023/07/26 00:44:08;;;;;;;4.88;2.67;;;;;;;12.55;87.75;101255.56;6056205;19;20017;-76
2023/07/26 00:46:13;;;;;;;4.35;2.17;;;;;;;12.52;87.27;101259.19;6068650;19;20479;-74
2023/07/26 00:48:19;;;;;;;4.97;2.17;;;;;;;12.50;87.36;101258.38;6063944;19;20296;-76
2023/07/26 00:50:26;;;;;;;2.65;2.13;;;;;;;12.51;88.46;101256.63;6057541;19;20201;-76
2023/07/26 00:52:32;;;;;;;4.40;2.45;;;;;;;12.43;86.85;101256.09;6061149;19;20075;-75
2023/07/26 00:54:37;;;;;;;6.22;2.15;;;;;;;12.41;88.02;101252.66;6053748;19;20192;-74
2023/07/26 00:56:43;;;;;;;4.18;2.42;;;;;;;12.41;87.63;101256.16;6057172;19;20264;-75
2023/07/26 00:58:52;;;;;;;4.32;2.55;;;;;;;12.36;88.03;101254.63;6054791;19;20263;-75
2023/07/26 01:00:58;;;;;;;4.60;2.10;;;;;;;12.34;87.50;101251.19;6053433;19;20019;-75
2023/07/26 01:03:04;;;;;;;3.83;2.03;;;;;;;12.29;87.63;101243.47;6060764;19;20003;-76
2023/07/26 01:05:13;;;;;;;4.68;2.20;;;;;;;12.27;88.82;101256.72;6060430;19;20412;-74
2023/07/26 01:07:26;;;;;;;3.47;2.10;;;;;;;12.26;89.39;101255.00;6048086;19;20444;-74
2023/07/26 01:09:38;;;;;;;4.78;2.50;;;;;;;12.17;88.41;101258.03;6070208;19;20007;-75
2023/07/26 01:11:53;;;;;;;6.78;2.75;;;;;;;12.12;88.46;101259.13;6063742;19;20614;-75
2023/07/26 01:14:11;;;;;;;4.22;2.25;;;;;;;12.11;89.90;101254.75;6057980;19;20054;-74
2023/07/26 01:16:18;;;;;;;4.35;2.53;;;;;;;12.10;90.90;101253.91;6064346;19;20222;-76
2023/07/26 01:18:26;;;;;;;5.07;2.10;;;;;;;12.10;88.71;101253.06;6064262;19;20007;-74
2023/07/26 01:20:32;;;;;;;3.50;2.20;;;;;;;12.05;87.95;101245.34;6064098;19;20014;-74
2023/07/26 01:22:49;;;;;;;5.28;2.35;;;;;;;12.05;90.68;101253.22;6060286;19;20050;-75
2023/07/26 01:24:56;;;;;;;2.92;2.35;;;;;;;12.02;90.43;101250.72;6057478;19;20046;-74
2023/07/26 01:27:03;;;;;;;4.40;2.25;;;;;;;12.03;88.98;101250.69;6061214;19;20028;-74
2023/07/26 01:29:09;;;;;;;4.82;2.55;;;;;;;12.03;90.46;101252.44;6061950;19;20007;-74
2023/07/26 01:31:16;;;;;;;4.00;2.10;;;;;;;11.97;88.89;101252.69;6067803;19;20021;-75
2023/07/26 01:33:22;;;;;;;4.95;2.33;;;;;;;11.91;90.11;101250.31;6070865;19;20501;-76
2023/07/26 01:35:34;;;;;;;3.50;2.47;;;;;;;11.90;89.39;101249.44;6064769;19;20649;-75
2023/07/26 01:37:41;;;;;;;3.22;2.00;;;;;;;11.91;88.79;101242.41;6065647;19;20518;-75
2023/07/26 01:39:51;;;;;;;7.18;2.95;;;;;;;11.91;89.67;101245.88;6069197;19;20020;-75
2023/07/26 01:41:57;;;;;;;5.80;2.33;;;;;;;11.92;90.37;101246.75;6069379;19;20018;-74
2023/07/26 01:44:02;;;;;;;3.72;2.25;;;;;;;11.90;90.07;101248.56;6069279;19;20508;-75
2023/07/26 01:46:08;;;;;;;8.13;2.70;;;;;;;11.84;90.79;101239.97;6066943;19;20434;-76
2023/07/26 01:48:13;;;;;;;5.15;2.05;;;;;;;11.85;90.38;101239.06;6063560;19;20510;-76
2023/07/26 01:50:19;;;;;;;4.40;2.30;;;;;;;11.80;90.49;101243.66;6063254;19;20541;-75
2023/07/26 01:52:25;;;;;;;4.30;2.33;;;;;;;11.77;90.41;101240.25;6069773;19;20590;-77
2023/07/26 01:54:30;;;;;;;7.53;2.88;;;;;;;11.76;91.35;101239.41;6070321;19;20265;-75
2023/07/26 01:56:38;;;;;;;4.75;2.55;;;;;;;11.73;90.77;101247.44;6075357;19;20367;-75
2023/07/26 01:58:44;;;;;;;5.15;2.70;;;;;;;11.69;90.43;101239.69;6073095;19;20028;-74
2023/07/26 02:00:49;;;;;;;3.10;2.33;;;;;;;11.69;90.51;101243.22;6068212;19;20011;-73
2023/07/26 02:02:54;;;;;;;4.70;2.45;;;;;;;11.62;90.98;101233.84;6077048;19;20043;-74
2023/07/26 02:05:01;;;;;;;4.43;2.72;;;;;;;11.63;91.32;101246.91;6070242;19;20490;-76
2023/07/26 02:07:07;;;;;;;5.00;2.47;;;;;;;11.67;91.49;101236.28;6065321;19;20175;-74
2023/07/26 02:09:12;;;;;;;3.83;2.05;;;;;;;11.69;91.82;101243.22;6070868;19;20555;-75
2023/07/26 02:11:18;;;;;;;3.95;2.30;;;;;;;11.62;91.87;101244.34;6061054;19;20538;-75
2023/07/26 02:13:27;;;;;;;4.90;2.25;;;;;;;11.59;92.06;101241.84;6066333;19;20489;-75
2023/07/26 02:15:31;;;;;;;7.68;2.45;;;;;;;11.57;91.13;101243.69;6074954;19;20620;-75
2023/07/26 02:17:37;;;;;;;6.15;3.00;;;;;;;11.55;91.11;101246.34;6063656;19;20122;-74
2023/07/26 02:19:43;;;;;;;5.28;2.65;;;;;;;11.51;91.62;101246.56;6061314;19;20459;-74
2023/07/26 02:21:49;;;;;;;4.80;2.55;;;;;;;11.58;92.28;101245.38;6068635;19;20021;-73
2023/07/26 02:23:54;;;;;;;5.22;2.50;;;;;;;11.55;91.22;101240.22;6062561;19;20483;-74
2023/07/26 02:26:07;;;;;;;3.85;2.20;;;;;;;11.53;91.59;101245.56;6063946;19;20010;-76
2023/07/26 02:28:13;;;;;;;3.83;2.60;;;;;;;11.54;92.42;101246.44;6066970;19;20465;-74
2023/07/26 02:30:21;;;;;;;6.30;2.90;;;;;;;11.49;91.66;101240.47;6069083;19;20278;-75
2023/07/26 02:32:25;;;;;;;3.63;2.30;;;;;;;11.50;90.76;101239.56;6073001;19;20097;-74
2023/07/26 02:34:31;;;;;;;4.93;2.40;;;;;;;11.57;91.82;101239.25;6069868;19;20019;-74
2023/07/26 02:36:44;;;;;;;5.00;2.50;;;;;;;11.57;91.77;101248.94;6067372;19;20477;-74
2023/07/26 02:38:49;;;;;;;3.80;2.22;;;;;;;11.54;91.65;101243.81;6067467;19;20012;-75
2023/07/26 02:40:55;;;;;;;3.80;2.30;;;;;;;11.55;91.71;101245.50;6058351;19;20014;-76
2023/07/26 02:43:01;;;;;;;6.15;2.50;;;;;;;11.52;92.85;101237.72;6065037;19;20013;-75
2023/07/26 02:45:08;;;;;;;2.97;2.20;;;;;;;11.54;92.82;101238.53;6061043;19;20053;-75
2023/07/26 02:47:16;;;;;;;4.25;2.80;;;;;;;11.51;92.23;101233.41;6070131;19;20367;-75
2023/07/26 02:49:21;;;;;;;3.50;2.28;;;;;;;11.49;91.96;101238.69;6065585;19;20529;-75
2023/07/26 02:51:29;;;;;;;4.13;2.47;;;;;;;11.46;92.05;101227.44;6064879;19;20007;-76
2023/07/26 02:53:35;;;;;;;5.13;2.75;;;;;;;11.54;92.54;101230.63;6062810;19;20021;-74
2023/07/26 02:55:44;;;;;;;5.55;2.63;;;;;;;11.53;92.04;101231.53;6068014;19;20011;-74
2023/07/26 02:57:49;;;;;;;3.50;2.00;;;;;;;11.57;92.16;101241.03;6061550;19;20090;-74
2023/07/26 02:59:54;;;;;;;5.20;2.50;;;;;;;11.55;92.38;101229.72;6060757;19;20007;-73
2023/07/26 03:02:02;;;;;;;5.35;2.53;;;;;;;11.56;93.06;101231.44;6061122;19;20011;-75
2023/07/26 03:04:10;;;;;;;3.80;2.10;;;;;;;11.56;92.17;101232.28;6063286;19;20018;-74
2023/07/26 03:06:15;;;;;;;3.03;2.40;;;;;;;11.62;92.53;101236.47;6064441;19;20266;-75
2023/07/26 03:08:21;;;;;;;3.25;2.30;;;;;;;11.66;92.73;101238.03;6062148;19;20368;-75
2023/07/26 03:10:29;;;;;;;4.10;2.40;;;;;;;11.73;93.41;101234.25;6065371;19;20443;-75
2023/07/26 03:12:38;;;;;;;5.32;2.75;;;;;;;11.77;92.61;101233.25;6049010;19;20053;-76
2023/07/26 03:14:44;;;;;;;4.00;2.33;;;;;;;11.78;92.56;101242.00;6061119;19;20007;-73
2023/07/26 03:16:49;;;;;;;4.00;2.47;;;;;;;11.89;93.13;101234.56;6053004;19;20007;-75
2023/07/26 03:18:55;;;;;;;5.45;2.70;;;;;;;11.93;92.86;101230.88;6059746;19;20538;-73
2023/07/26 03:21:03;;;;;;;7.40;3.25;;;;;;;12.03;92.98;101236.63;6058987;19;20435;-74
2023/07/26 03:23:08;;;;;;;3.83;2.30;;;;;;;12.00;92.00;101239.38;6057789;19;20340;-75
2023/07/26 03:25:13;;;;;;;5.05;2.58;;;;;;;12.04;92.09;101238.38;6055108;19;20007;-75
2023/07/26 03:27:19;;;;;;;8.25;2.85;;;;;;;12.04;91.89;101239.22;6055119;19;20476;-74
2023/07/26 03:29:29;;;;;;;3.70;2.33;;;;;;;12.08;92.50;101242.56;6065820;19;20022;-75
2023/07/26 03:31:34;;;;;;;6.70;2.63;;;;;;;12.12;92.40;101233.63;6059287;19;20111;-76
2023/07/26 03:33:41;;;;;;;4.20;2.63;;;;;;;12.17;92.36;101239.56;6053602;19;20525;-74
2023/07/26 03:35:43;;;;;;;5.20;2.42;;;;;;;12.20;92.48;101233.31;6059701;19;20018;-73
2023/07/26 03:37:52;;;;;;;5.90;2.90;;;;;;;12.27;93.25;101235.66;6061206;19;20015;-74
2023/07/26 03:39:59;;;;;;;6.50;2.70;;;;;;;12.30;92.52;101232.88;6061449;19;20081;-74
2023/07/26 03:42:05;;;;;;;6.82;2.88;;;;;;;12.34;92.86;101235.38;6066840;19;20076;-75
2023/07/26 03:44:11;;;;;;;6.28;2.72;;;;;;;12.37;92.84;101236.09;6060203;19;20259;-75
2023/07/26 03:46:16;;;;;;;6.30;2.63;;;;;;;12.43;93.18;101237.66;6061209;19;20160;-73
2023/07/26 03:48:19;;;;;;;6.53;3.03;;;;;;;12.48;92.92;101236.53;6061908;19;20526;-75
2023/07/26 03:50:25;;;;;;;4.45;2.65;;;;;;;12.51;92.91;101233.75;6062654;19;20027;-76
2023/07/26 03:52:33;;;;;;;5.90;3.05;;;;;;;12.59;93.42;101233.44;6049163;19;20208;-76
2023/07/26 03:54:41;;;;;;;4.28;2.60;;;;;;;12.64;92.80;101228.84;6068321;19;20046;-75
2023/07/26 03:56:46;;;;;;;4.75;3.00;;;;;;;12.71;92.79;101224.13;6063898;19;20011;-74
2023/07/26 03:58:49;;;;;;;5.15;2.63;;;;;;;12.73;92.56;101222.28;6065743;19;20025;-76
2023/07/26 04:00:54;;;;;;;;;;;;;;;12.77;92.74;101221.25;6058764;19;20166;-74
2023/07/26 04:03:00;;;;;;;6.25;3.13;;;;;;;12.79;92.01;101221.16;6055120;19;19982;-75
2023/07/26 04:05:03;;;;;;;6.20;3.75;;;;;;;12.83;92.71;101217.50;6064780;19;19999;-74
2023/07/26 04:07:12;;;;;;;4.88;3.03;;;;;;;12.85;92.19;101215.63;6066111;19;20734;-75
2023/07/26 04:09:17;;;;;;;6.15;3.30;;;;;;;12.88;92.22;101216.34;6056352;19;20368;-74
2023/07/26 04:11:29;;;;;;;7.40;3.20;;;;;;;12.88;92.19;101211.09;6065537;19;20482;-75
2023/07/26 04:13:35;;;;;;;6.53;3.05;;;;;;;12.93;92.66;101205.59;6062149;19;20010;-76
2023/07/26 04:15:41;;;;;;;5.80;3.22;;;;;;;13.01;92.20;101206.13;6067924;19;20046;-74
2023/07/26 04:17:46;;;;;;;6.82;3.80;;;;;;;13.08;91.80;101206.69;6068808;19;20163;-76
2023/07/26 04:19:52;;;;;;;6.97;3.65;;;;;;;13.18;91.00;101214.13;6071851;19;20310;-74
2023/07/26 04:21:57;;;;;;;8.40;4.65;;;;;;;13.25;90.30;101224.41;6068898;19;20439;-74
2023/07/26 04:24:03;;;;;;;7.82;4.10;;;;;;;13.30;90.46;101214.53;6066787;19;20631;-74
2023/07/26 04:26:09;;;;;;;7.60;3.97;;;;;;;13.35;90.71;101212.53;6073352;19;20097;-74
2023/07/26 04:28:18;;;;;;;8.07;3.95;;;;;;;13.39;90.32;101216.75;6066297;19;20482;-76
2023/07/26 04:30:23;;;;;;;6.10;3.20;;;;;;;13.43;90.42;101218.31;6066930;19;20019;-74
2023/07/26 04:32:29;;;;;;;9.52;3.88;;;;;;;13.44;90.54;101212.09;6068216;19;20372;-75
2023/07/26 04:34:38;;;;;;;7.15;3.72;;;;;;;13.47;90.44;101219.88;6055245;19;20290;-75
2023/07/26 04:36:44;;;;;;;8.05;3.85;;;;;;;13.50;90.33;101209.16;6067463;19;20038;-76
2023/07/26 04:38:46;;;;;;;6.45;3.40;;;;;;;13.51;90.21;101208.25;6061515;19;20334;-76
2023/07/26 04:40:52;;;;;;;6.07;3.53;;;;;;;13.53;90.50;101214.31;6060482;19;20342;-75
2023/07/26 04:42:58;;;;;;;7.70;3.83;;;;;;;13.55;90.51;101209.81;6066195;19;20268;-74
2023/07/26 04:45:07;;;;;;;7.90;3.67;;;;;;;13.58;90.17;101214.94;6067120;19;20301;-76
2023/07/26 04:47:12;;;;;;;6.85;3.45;;;;;;;13.60;90.20;101210.44;6069263;19;20399;-74
2023/07/26 04:49:17;;;;;;;9.95;3.85;;;;;;;13.61;90.23;101212.19;6070038;19;20076;-74
2023/07/26 04:51:23;;;;;;;7.72;3.30;;;;;;;13.67;90.38;101212.81;6069982;19;20132;-74
2023/07/26 04:53:29;;;;;;;8.38;3.85;;;;;;;13.67;89.79;101215.47;6061554;19;20475;-75
2023/07/26 04:55:35;;;;;;;8.93;3.47;;;;;;;13.70;89.91;101217.94;6070760;19;20487;-75
2023/07/26 04:57:41;;;;;;;8.00;3.38;;;;;;;13.70;89.82;101218.81;6059822;19;20152;-74
2023/07/26 04:59:47;;;;;;;7.28;3.72;;;;;;;13.77;89.74;101219.34;6069455;19;20341;-75
2023/07/26 05:01:55;;;;;;;9.07;4.22;;;;;;;13.83;89.62;101225.22;6074301;19;20547;-75
2023/07/26 05:04:04;;;;;;;9.15;3.85;;;;;;;13.92;89.97;101225.69;6074947;19;20014;-75
2023/07/26 05:06:13;;;;;;;8.85;4.78;;;;;;;13.97;89.56;101223.69;6067969;19;20422;-75
2023/07/26 05:08:19;;;;;;;9.80;4.45;;;;;;;14.03;89.91;101228.66;6068120;19;20352;-74
2023/07/26 05:10:26;;;;;;;10.77;4.70;;;;;;;14.07;90.44;101218.81;6068529;19;20046;-74
2023/07/26 05:12:32;;;;;;;11.80;4.53;;;;;;;14.10;90.25;101229.22;6072254;19;20495;-75
2023/07/26 05:14:41;;;;;;;13.57;5.40;;;;;;;14.14;90.70;101236.06;6062486;19;20686;-74
2023/07/26 05:16:46;;;;;;;14.00;4.95;;;;;;;14.18;92.81;101232.34;6064323;19;20011;-75
2023/07/26 05:18:57;;;;;;;10.85;5.60;;;;;;;14.18;92.72;101235.00;6067480;19;20430;-73
2023/07/26 05:21:03;;;;;;;9.38;4.50;;;;;;;14.15;93.32;101236.00;6069498;19;20518;-73
2023/07/26 05:23:09;;;;;;;10.73;5.95;;;;;;;14.11;94.91;101236.22;6067992;19;20029;-76
2023/07/26 05:25:14;;;;;;;13.75;6.20;;;;;;;14.10;95.42;101245.09;6067709;19;20042;-75
2023/07/26 05:27:20;;;;;;;12.10;5.43;;;;;;;14.07;95.81;101234.69;6058746;19;20656;-75
2023/07/26 05:29:25;;;;;;;10.18;5.65;;;;;;;14.12;96.25;101235.31;6062486;19;20090;-73
2023/07/26 05:31:31;;;;;;;11.40;6.63;;;;;;;14.10;96.95;101245.09;6056792;19;20010;-75
2023/07/26 05:33:37;;;;;;;11.10;5.50;;;;;;;14.11;96.86;101249.44;6067474;19;21988;-73
2023/07/26 05:35:45;;;;;;;11.02;6.32;;;;;;;14.14;97.02;101262.50;6063686;19;20027;-72
2023/07/26 05:37:51;;;;;;;15.85;6.68;;;;;;;14.16;97.33;101260.63;6077814;19;20466;-73
2023/07/26 05:39:56;;;;;;;12.57;5.75;;;;;;;14.12;97.76;101267.03;6072498;19;20022;-72
2023/07/26 05:42:02;;;;;;;12.75;6.18;;;;;;;14.12;97.19;101275.81;6065835;19;20010;-74
2023/07/26 05:44:08;;;;;;;12.52;5.70;;;;;;;14.10;97.58;101272.38;6070610;19;20082;-73
2023/07/26 05:46:13;;;;;;;14.95;6.13;;;;;;;14.09;96.72;101275.97;6067233;19;20022;-73
2023/07/26 05:48:18;;;;;;;14.70;6.35;;;;;;;14.13;97.45;101268.72;6069093;19;20014;-73
2023/07/26 05:50:24;;;;;;;9.85;5.05;;;;;;;14.08;96.71;101279.50;6065712;19;20212;-75
2023/07/26 05:52:33;;;;;;;9.55;5.57;;;;;;;13.99;95.58;101280.81;6056110;19;20444;-72
2023/07/26 05:54:37;;;;;;;11.15;5.70;;;;;;;13.97;96.31;101282.66;6059117;19;20031;-73
2023/07/26 05:56:42;;;;;;;7.88;4.53;;;;;;;13.98;96.38;101284.41;6056279;19;20014;-73
2023/07/26 05:58:48;;;;;;;9.45;5.57;;;;;;;13.98;96.96;101288.81;6058071;19;20365;-73
2023/07/26 06:00:56;;;;;;;7.68;5.00;;;;;;;14.01;96.42;101291.31;6058903;19;20357;-74
2023/07/26 06:03:04;;;;;;;10.07;5.00;;;;;;;13.94;97.28;101293.38;6060448;19;20031;-74
2023/07/26 06:05:13;;;;;;;10.63;4.38;;;;;;;13.97;96.36;101297.66;6058007;19;21052;-74
2023/07/26 06:07:17;;;;;;;8.82;4.40;;;;;;;13.92;96.60;101303.16;6051127;19;20068;-74
2023/07/26 06:09:25;;;;;;;7.97;4.32;;;;;;;13.99;96.06;101309.03;6056054;19;20010;-72
2023/07/26 06:11:34;;;;;;;9.05;4.85;;;;;;;14.12;96.13;101311.94;6061864;19;20021;-74
2023/07/26 06:14:00;;;;;;;8.95;4.45;;;;;;;14.15;95.95;101317.94;6060016;19;20187;-72
2023/07/26 06:16:07;;;;;;;10.13;4.78;;;;;;;14.40;94.79;101314.09;6050468;19;20473;-72
2023/07/26 06:18:09;;;;;;;9.80;5.07;;;;;;;14.73;94.50;101324.00;6055529;19;21280;-74
2023/07/26 06:20:15;;;;;;;7.68;4.55;;;;;;;14.93;93.84;101311.47;6063691;19;20055;-74
2023/07/26 06:22:20;;;;;;;14.23;5.70;;;;;;;15.09;93.30;101321.28;6062639;19;20003;-73
2023/07/26 06:24:30;;;;;;;12.57;5.43;;;;;;;15.44;91.98;101313.25;6064262;19;20041;-73
2023/07/26 06:26:40;;;;;;;10.23;4.40;;;;;;;15.93;89.43;101307.94;6060029;19;20191;-72
2023/07/26 06:28:46;;;;;;;8.65;4.70;;;;;;;16.54;87.66;101312.47;6065994;19;20605;-75
2023/07/26 06:30:52;;;;;;;9.95;4.78;;;;;;;16.94;86.54;101302.16;6068612;19;20086;-72
2023/07/26 06:32:57;;;;;;;11.85;5.22;;;;;;;16.70;84.65;101314.22;6063547;19;20628;-73
2023/07/26 06:35:01;;;;;;;10.38;5.20;;;;;;;17.17;84.29;101307.88;6072994;19;20074;-73
2023/07/26 06:37:07;;;;;;;9.38;5.03;;;;;;;17.57;81.74;101305.44;6051782;19;20014;-74
2023/07/26 06:39:12;;;;;;;8.65;4.25;;;;;;;17.80;80.04;101312.00;6061152;19;20011;-72
2023/07/26 06:41:20;;;;;;;7.25;4.20;;;;;;;18.29;79.74;101312.34;6069888;19;20399;-73
2023/07/26 06:43:26;;;;;;;9.30;4.32;;;;;;;18.72;78.63;101314.84;6033173;19;20195;-73
2023/07/26 06:45:34;;;;;;;8.10;4.55;;;;;;;18.30;76.71;101319.41;6047547;19;20590;-73
2023/07/26 06:47:40;;;;;;;10.27;3.97;;;;;;;18.14;78.91;101321.31;6060490;19;20046;-74
2023/07/26 06:49:48;;;;;;;7.32;3.45;;;;;;;18.05;78.73;101314.81;6058857;19;20189;-74
2023/07/26 06:51:53;;;;;;;8.43;3.63;;;;;;;17.59;78.53;101314.16;6069425;19;20096;-74
2023/07/26 06:53:56;;;;;;;7.85;3.40;;;;;;;17.68;78.44;101316.25;6060513;19;20513;-73
2023/07/26 06:56:01;;;;;;;7.82;3.40;;;;;;;17.65;78.81;101319.13;6072915;19;20030;-74
2023/07/26 06:58:09;;;;;;;6.13;2.78;;;;;;;17.13;79.13;101312.53;6078111;19;20003;-73
2023/07/26 07:00:15;;;;;;;7.18;2.97;;;;;;;16.66;78.50;101329.44;6061041;19;20266;-73
2023/07/26 07:02:20;;;;;;;8.10;3.20;;;;;;;16.71;80.25;101326.53;6065298;19;20445;-72
2023/07/26 07:04:26;;;;;;;9.13;4.03;;;;;;;16.41;80.25;101317.59;6053609;19;20484;-73
2023/07/26 07:06:32;;;;;;;9.18;3.47;;;;;;;16.33;82.29;101324.31;6050437;19;20598;-75
2023/07/26 07:08:39;;;;;;;8.05;3.30;;;;;;;16.45;81.24;101321.78;6061085;19;20621;-73
2023/07/26 07:10:44;;;;;;;8.38;3.67;;;;;;;16.25;81.43;101327.38;6063327;19;20044;-73
2023/07/26 07:12:49;;;;;;;8.77;3.50;;;;;;;17.41;79.47;101327.66;6056720;19;20006;-73
2023/07/26 07:14:57;;;;;;;7.22;3.50;;;;;;;18.14;77.46;101326.66;6055581;19;20473;-74
2023/07/26 07:17:04;;;;;;;9.10;3.78;;;;;;;18.36;72.12;101326.97;6062498;19;20014;-73
2023/07/26 07:19:12;;;;;;;8.00;3.05;;;;;;;18.76;71.35;101324.34;6054219;19;20298;-73
2023/07/26 07:21:17;;;;;;;7.20;3.15;;;;;;;18.93;70.87;101327.69;6058032;19;20029;-72
2023/07/26 07:23:22;;;;;;;7.32;3.38;;;;;;;18.38;70.69;101330.38;6055607;19;20795;-73
2023/07/26 07:25:28;;;;;;;8.13;3.53;;;;;;;19.13;70.16;101332.50;6070146;19;20620;-70
2023/07/26 07:27:36;;;;;;;7.75;3.13;;;;;;;18.43;70.55;101336.25;6095045;19;20356;-71
2023/07/26 07:29:41;;;;;;;9.77;3.90;;;;;;;18.35;68.54;101335.91;6086378;19;20602;-70
2023/07/26 07:31:49;;;;;;;9.18;3.70;;;;;;;18.64;68.25;101333.13;6087202;19;20320;-71
2023/07/26 07:33:54;;;;;;;8.48;3.60;;;;;;;18.97;66.30;101343.34;6086951;19;20766;-71
2023/07/26 07:36:00;;;;;;;7.97;3.13;;;;;;;19.24;65.59;101342.41;6091962;19;20031;-71
2023/07/26 07:38:05;;;;;;;10.90;3.88;;;;;;;19.06;65.06;101339.19;6088823;19;20683;-71
2023/07/26 07:40:12;;;;;;;9.18;3.63;;;;;;;18.20;67.25;101347.56;6084883;19;20011;-71
2023/07/26 07:42:19;;;;;;;7.22;3.17;;;;;;;19.32;66.68;101347.22;6089268;19;20006;-73
2023/07/26 07:44:24;;;;;;;8.35;3.70;;;;;;;19.21;63.75;101345.31;6086601;19;20006;-72
2023/07/26 07:46:30;;;;;;;7.85;3.63;;;;;;;18.91;62.10;101354.44;6077230;19;20013;-72
2023/07/26 07:48:39;;;;;;;9.93;3.35;;;;;;;20.14;63.44;101343.19;6070080;19;20167;-71
2023/07/26 07:50:45;;;;;;;9.10;3.03;;;;;;;20.13;62.10;101339.66;6063526;19;20017;-72
2023/07/26 07:52:50;;;;;;;6.90;2.72;;;;;;;19.57;62.40;101354.38;6062712;19;20007;-71
2023/07/26 07:54:56;;;;;;;6.25;2.97;;;;;;;19.38;61.58;101355.66;6058772;19;20017;-72
2023/07/26 07:57:02;;;;;;;7.15;2.97;;;;;;;19.29;62.87;101349.13;6062732;19;20534;-73
2023/07/26 07:59:07;;;;;;;6.63;2.67;;;;;;;18.73;63.31;101351.16;6070151;19;20521;-73
2023/07/26 08:01:13;;;;;;;8.98;3.08;;;;;;;18.95;63.44;101353.25;6066255;19;20013;-74
2023/07/26 08:03:18;;;;;;;6.13;2.50;;;;;;;19.43;61.64;101350.88;6063216;19;20011;-72
2023/07/26 08:05:27;;;;;;;6.93;3.08;;;;;;;20.53;59.64;101344.72;6051706;19;20444;-72
2023/07/26 08:07:33;;;;;;;6.93;2.67;;;;;;;20.29;58.34;101343.88;6058187;19;20584;-71
2023/07/26 08:09:39;;;;;;;9.50;3.33;;;;;;;20.04;59.45;101340.34;6062317;19;20386;-72
2023/07/26 08:11:47;;;;;;;8.18;3.08;;;;;;;19.81;60.83;101346.50;6063725;19;20586;-72
2023/07/26 08:13:53;;;;;;;6.07;2.40;;;;;;;19.43;60.85;101353.53;6067124;19;20373;-72
2023/07/26 08:16:00;;;;;;;6.43;2.90;;;;;;;19.68;61.10;101347.34;6071010;19;20010;-71
2023/07/26 08:18:10;;;;;;;9.25;2.90;;;;;;;18.95;60.08;101355.06;6079889;19;20466;-72
2023/07/26 08:20:15;;;;;;;7.50;2.70;;;;;;;18.54;61.99;101351.53;6078972;19;20014;-72
2023/07/26 08:22:23;;;;;;;6.45;3.03;;;;;;;17.84;62.87;101359.56;6074257;19;20509;-72
2023/07/26 08:24:30;;;;;;;7.47;2.88;;;;;;;18.91;60.85;101359.75;6071875;19;20006;-73
2023/07/26 08:26:37;;;;;;;6.70;2.50;;;;;;;18.93;59.55;101359.63;6078182;19;20027;-73
2023/07/26 08:28:43;;;;;;;7.05;3.35;;;;;;;18.90;58.71;101370.50;6077374;19;20010;-74
2023/07/26 08:30:48;;;;;;;6.60;3.05;;;;;;;19.15;58.32;101367.91;6073976;19;20010;-72
2023/07/26 08:32:54;;;;;;;9.43;2.60;;;;;;;19.97;57.67;101356.91;6062587;19;20016;-75
2023/07/26 08:34:59;;;;;;;8.15;3.15;;;;;;;20.18;56.32;101358.88;6065202;19;20281;-75
2023/07/26 08:37:06;;;;;;;8.32;2.85;;;;;;;20.41;56.48;101358.16;6067620;19;20503;-72
2023/07/26 08:39:19;;;;;;;7.15;3.08;;;;;;;20.93;55.01;101359.63;6077523;19;20011;-73
2023/07/26 08:41:40;;;;;;;6.85;2.63;;;;;;;20.97;55.01;101361.09;6058462;19;20250;-73
2023/07/26 08:43:51;;;;;;;5.50;3.05;;;;;;;20.44;54.52;101358.78;6078382;19;20272;-73
2023/07/26 08:45:56;;;;;;;6.80;2.85;;;;;;;19.69;55.42;101361.53;6077906;19;20843;-70
2023/07/26 08:48:04;;;;;;;7.75;3.00;;;;;;;18.91;56.79;101374.91;6082101;19;20015;-72
2023/07/26 08:50:13;;;;;;;6.82;2.67;;;;;;;19.49;56.65;101368.25;6081348;19;20468;-71
2023/07/26 08:52:19;;;;;;;8.60;3.33;;;;;;;19.69;55.67;101366.84;6076455;19;20209;-71
2023/07/26 08:54:28;;;;;;;6.90;3.38;;;;;;;19.48;56.62;101359.41;6078650;19;20196;-70
2023/07/26 08:56:34;;;;;;;6.55;2.67;;;;;;;19.64;55.91;101361.84;6083978;19;20375;-70
2023/07/26 08:58:41;;;;;;;5.20;2.28;;;;;;;19.67;56.63;101358.13;6063914;19;20050;-70
2023/07/26 09:00:47;;;;;;;6.68;3.45;;;;;;;19.45;56.72;101367.56;6088942;19;20094;-71
2023/07/26 09:02:54;;;;;;;5.72;2.70;;;;;;;20.13;52.87;101357.50;6086522;19;20031;-71
2023/07/26 09:05:00;;;;;;;5.70;2.55;;;;;;;20.32;53.48;101365.84;6084327;19;20512;-72
2023/07/26 09:07:06;;;;;;;6.85;2.40;;;;;;;21.04;52.94;101363.19;6088142;19;20011;-70
2023/07/26 09:09:09;;;;;;;5.60;2.30;;;;;;;21.50;53.57;101350.78;6080304;19;20002;-69
2023/07/26 09:11:28;;;;;;;4.95;2.38;;;;;;;21.28;51.28;101359.59;6087290;19;20011;-69
2023/07/26 09:13:35;;;;;;;6.70;2.83;;;;;;;21.59;53.26;101352.75;6069912;19;20587;-70
2023/07/26 09:15:43;;;;;;;5.78;2.47;;;;;;;21.00;51.73;101367.03;6069608;19;20011;-70
2023/07/26 09:17:49;;;;;;;6.45;2.33;;;;;;;22.35;51.25;101361.81;6060659;19;20021;-71
2023/07/26 09:19:54;;;;;;;7.05;3.00;;;;;;;21.29;50.17;101358.63;6063535;19;20427;-72
2023/07/26 09:21:58;;;;;;;7.47;2.88;;;;;;;20.91;51.23;101364.25;6056647;19;20014;-74
2023/07/26 09:24:06;;;;;;;6.55;2.75;;;;;;;22.56;50.12;101359.19;6065331;19;20230;-70
2023/07/26 09:26:14;;;;;;;7.47;2.83;;;;;;;22.53;47.86;101355.91;6062364;19;20839;-70
2023/07/26 09:28:25;;;;;;;4.82;2.45;;;;;;;21.14;46.86;101351.78;6064717;19;20318;-72
2023/07/26 09:30:36;;;;;;;5.45;2.10;;;;;;;20.27;50.35;101372.50;6067355;19;20457;-70
2023/07/26 09:32:41;;;;;;;6.80;3.22;;;;;;;20.37;50.52;101368.19;6070087;19;20050;-71
2023/07/26 09:34:52;;;;;;;7.80;2.55;;;;;;;20.39;50.20;101369.78;6071575;19;20002;-69
2023/07/26 09:37:00;;;;;;;5.63;2.45;;;;;;;21.16;50.95;101374.75;6074910;19;20003;-73
2023/07/26 09:39:06;;;;;;;5.63;2.58;;;;;;;20.10;52.58;101377.25;6070783;19;20230;-74
2023/07/26 09:41:24;;;;;;;5.03;2.30;;;;;;;19.95;53.01;101375.69;6060620;19;20052;-73
2023/07/26 09:43:36;;;;;;;5.90;2.75;;;;;;;21.54;49.67;101370.97;6066239;19;20056;-72
2023/07/26 09:45:46;;;;;;;6.60;2.35;;;;;;;21.84;48.21;101367.69;6073220;19;20011;-73
2023/07/26 09:47:51;;;;;;;4.93;2.72;;;;;;;22.24;48.55;101366.31;6070360;19;20113;-72
2023/07/26 09:50:07;;;;;;;6.10;2.47;;;;;;;22.24;48.69;101363.66;6069264;19;20033;-71